sensor_id;sensor_type;location;lat;lon;timestamp;temperature;humidity
28193;DHT22;15473;50.840;3.396;2022-09-29T00:01:50;11.00;99.90
28193;DHT22;15473;50.840;3.396;2022-09-29T00:04:26;11.00;99.90
28193;DHT22;15473;50.840;3.396;2022-09-29T00:06:56;11.00;99.90
28193;DHT22;15473;50.840;3.396;2022-09-29T00:09:26;11.00;99.90
28193;DHT22;15473;50.840;3.396;2022-09-29T00:11:56;11.00;99.90
28193;DHT22;15473;50.840;3.396;2022-09-29T00:14:26;11.10;99.90
28193;DHT22;15473;50.840;3.396;2022-09-29T00:16:56;11.10;99.90
28193;DHT22;15473;50.840;3.396;2022-09-29T00:19:27;11.10;99.90
28193;DHT22;15473;50.840;3.396;2022-09-29T00:21:58;11.10;99.90
28193;DHT22;15473;50.840;3.396;2022-09-29T00:24:28;11.10;99.90
28193;DHT22;15473;50.840;3.396;2022-09-29T00:26:59;11.00;99.90
28193;DHT22;15473;50.840;3.396;2022-09-29T00:29:29;11.10;99.90
28193;DHT22;15473;50.840;3.396;2022-09-29T00:32:00;11.10;99.90
28193;DHT22;15473;50.840;3.396;2022-09-29T00:34:31;11.00;99.90
28193;DHT22;15473;50.840;3.396;2022-09-29T00:37:02;11.00;99.90
28193;DHT22;15473;50.840;3.396;2022-09-29T00:39:39;11.00;99.90
28193;DHT22;15473;50.840;3.396;2022-09-29T00:42:11;11.00;99.90
28193;DHT22;15473;50.840;3.396;2022-09-29T00:44:54;11.00;99.90
28193;DHT22;15473;50.840;3.396;2022-09-29T00:47:25;11.00;99.90
28193;DHT22;15473;50.840;3.396;2022-09-29T00:49:58;10.90;99.90
28193;DHT22;15473;50.840;3.396;2022-09-29T00:55:25;10.90;99.90
28193;DHT22;15473;50.840;3.396;2022-09-29T00:58:31;10.80;99.90
28193;DHT22;15473;50.840;3.396;2022-09-29T01:01:07;10.80;99.90
28193;DHT22;15473;50.840;3.396;2022-09-29T01:06:55;10.80;99.90
28193;DHT22;15473;50.840;3.396;2022-09-29T01:09:15;10.80;99.90
28193;DHT22;15473;50.840;3.396;2022-09-29T01:11:45;10.80;99.90
28193;DHT22;15473;50.840;3.396;2022-09-29T01:14:15;10.80;99.90
28193;DHT22;15473;50.840;3.396;2022-09-29T01:16:45;10.90;99.90
28193;DHT22;15473;50.840;3.396;2022-09-29T01:19:42;10.90;99.90
28193;DHT22;15473;50.840;3.396;2022-09-29T01:25:10;11.00;99.90
28193;DHT22;15473;50.840;3.396;2022-09-29T01:28:07;11.00;99.90
28193;DHT22;15473;50.840;3.396;2022-09-29T01:31:08;11.00;99.90
28193;DHT22;15473;50.840;3.396;2022-09-29T01:39:44;11.00;99.90
28193;DHT22;15473;50.840;3.396;2022-09-29T01:42:17;11.10;99.90
28193;DHT22;15473;50.840;3.396;2022-09-29T01:44:54;11.10;99.90
28193;DHT22;15473;50.840;3.396;2022-09-29T01:47:28;11.10;99.90
28193;DHT22;15473;50.840;3.396;2022-09-29T01:50:07;11.10;99.90
28193;DHT22;15473;50.840;3.396;2022-09-29T01:52:46;11.20;99.90
28193;DHT22;15473;50.840;3.396;2022-09-29T01:55:25;11.20;99.90
28193;DHT22;15473;50.840;3.396;2022-09-29T01:57:58;11.20;99.90
28193;DHT22;15473;50.840;3.396;2022-09-29T02:00:31;11.20;99.90
28193;DHT22;15473;50.840;3.396;2022-09-29T02:03:21;11.20;99.90
28193;DHT22;15473;50.840;3.396;2022-09-29T02:05:54;11.20;99.90
28193;DHT22;15473;50.840;3.396;2022-09-29T02:08:36;11.20;99.90
28193;DHT22;15473;50.840;3.396;2022-09-29T02:11:22;11.20;99.90
28193;DHT22;15473;50.840;3.396;2022-09-29T02:14:10;11.30;99.90
28193;DHT22;15473;50.840;3.396;2022-09-29T02:16:45;11.30;99.90
28193;DHT22;15473;50.840;3.396;2022-09-29T02:19:14;11.30;99.90
28193;DHT22;15473;50.840;3.396;2022-09-29T02:21:44;11.30;99.90
28193;DHT22;15473;50.840;3.396;2022-09-29T02:24:17;11.30;99.90
28193;DHT22;15473;50.840;3.396;2022-09-29T02:26:48;11.30;99.90
28193;DHT22;15473;50.840;3.396;2022-09-29T02:29:18;11.30;99.90
28193;DHT22;15473;50.840;3.396;2022-09-29T02:31:49;11.30;99.90
28193;DHT22;15473;50.840;3.396;2022-09-29T02:34:20;11.30;99.90
28193;DHT22;15473;50.840;3.396;2022-09-29T02:39:55;11.40;99.90
28193;DHT22;15473;50.840;3.396;2022-09-29T02:48:47;11.40;99.90
28193;DHT22;15473;50.840;3.396;2022-09-29T02:51:38;11.40;99.90
28193;DHT22;15473;50.840;3.396;2022-09-29T03:00:16;11.40;99.90
28193;DHT22;15473;50.840;3.396;2022-09-29T03:02:53;11.30;99.90
28193;DHT22;15473;50.840;3.396;2022-09-29T03:05:23;11.30;99.90
28193;DHT22;15473;50.840;3.396;2022-09-29T03:07:54;11.20;99.90
28193;DHT22;15473;50.840;3.396;2022-09-29T03:10:24;11.20;99.90
28193;DHT22;15473;50.840;3.396;2022-09-29T03:12:54;11.10;99.90
28193;DHT22;15473;50.840;3.396;2022-09-29T03:15:24;11.00;99.90
28193;DHT22;15473;50.840;3.396;2022-09-29T03:17:57;11.00;99.90
28193;DHT22;15473;50.840;3.396;2022-09-29T03:20:33;10.90;99.90
28193;DHT22;15473;50.840;3.396;2022-09-29T03:23:03;10.90;99.90
28193;DHT22;15473;50.840;3.396;2022-09-29T03:25:40;10.80;99.90
28193;DHT22;15473;50.840;3.396;2022-09-29T03:28:10;10.70;99.90
28193;DHT22;15473;50.840;3.396;2022-09-29T03:30:41;10.70;99.90
28193;DHT22;15473;50.840;3.396;2022-09-29T03:33:14;10.70;99.90
28193;DHT22;15473;50.840;3.396;2022-09-29T03:35:44;10.70;99.90
28193;DHT22;15473;50.840;3.396;2022-09-29T03:38:14;10.70;99.90
28193;DHT22;15473;50.840;3.396;2022-09-29T03:40:44;10.70;99.90
28193;DHT22;15473;50.840;3.396;2022-09-29T03:43:14;10.70;99.90
28193;DHT22;15473;50.840;3.396;2022-09-29T03:45:49;10.70;99.90
28193;DHT22;15473;50.840;3.396;2022-09-29T03:48:20;10.70;99.90
28193;DHT22;15473;50.840;3.396;2022-09-29T03:50:56;10.60;99.90
28193;DHT22;15473;50.840;3.396;2022-09-29T03:53:26;10.60;99.90
28193;DHT22;15473;50.840;3.396;2022-09-29T03:55:56;10.60;99.90
28193;DHT22;15473;50.840;3.396;2022-09-29T03:58:26;10.60;99.90
28193;DHT22;15473;50.840;3.396;2022-09-29T04:00:57;10.60;99.90
28193;DHT22;15473;50.840;3.396;2022-09-29T04:03:27;10.50;99.90
28193;DHT22;15473;50.840;3.396;2022-09-29T04:05:58;10.50;99.90
28193;DHT22;15473;50.840;3.396;2022-09-29T04:08:28;10.50;99.90
28193;DHT22;15473;50.840;3.396;2022-09-29T04:10:58;10.50;99.90
28193;DHT22;15473;50.840;3.396;2022-09-29T04:13:28;10.60;99.90
28193;DHT22;15473;50.840;3.396;2022-09-29T04:18:55;10.60;99.90
28193;DHT22;15473;50.840;3.396;2022-09-29T04:21:26;10.60;99.90
28193;DHT22;15473;50.840;3.396;2022-09-29T04:24:02;10.60;99.90
28193;DHT22;15473;50.840;3.396;2022-09-29T04:26:32;10.60;99.90
28193;DHT22;15473;50.840;3.396;2022-09-29T04:29:04;10.60;99.90
28193;DHT22;15473;50.840;3.396;2022-09-29T04:31:40;10.60;99.90
28193;DHT22;15473;50.840;3.396;2022-09-29T04:34:16;10.50;99.90
28193;DHT22;15473;50.840;3.396;2022-09-29T04:36:48;10.50;99.90
28193;DHT22;15473;50.840;3.396;2022-09-29T04:39:18;10.40;99.90
28193;DHT22;15473;50.840;3.396;2022-09-29T04:41:55;10.50;99.90
28193;DHT22;15473;50.840;3.396;2022-09-29T04:44:25;10.50;99.90
28193;DHT22;15473;50.840;3.396;2022-09-29T04:46:55;10.50;99.90
28193;DHT22;15473;50.840;3.396;2022-09-29T04:49:31;10.50;99.90
28193;DHT22;15473;50.840;3.396;2022-09-29T04:52:02;10.50;99.90
28193;DHT22;15473;50.840;3.396;2022-09-29T04:54:39;10.60;99.90
28193;DHT22;15473;50.840;3.396;2022-09-29T04:57:09;10.60;99.90
28193;DHT22;15473;50.840;3.396;2022-09-29T04:59:39;10.60;99.90
28193;DHT22;15473;50.840;3.396;2022-09-29T05:02:09;10.60;99.90
28193;DHT22;15473;50.840;3.396;2022-09-29T05:04:39;10.60;99.90
28193;DHT22;15473;50.840;3.396;2022-09-29T05:07:16;10.60;99.90
28193;DHT22;15473;50.840;3.396;2022-09-29T05:09:52;10.60;99.90
28193;DHT22;15473;50.840;3.396;2022-09-29T05:12:22;10.70;99.90
28193;DHT22;15473;50.840;3.396;2022-09-29T05:14:52;10.70;99.90
28193;DHT22;15473;50.840;3.396;2022-09-29T05:17:22;10.70;99.90
28193;DHT22;15473;50.840;3.396;2022-09-29T05:19:53;10.70;99.90
28193;DHT22;15473;50.840;3.396;2022-09-29T05:22:23;10.70;99.90
28193;DHT22;15473;50.840;3.396;2022-09-29T05:24:54;10.70;99.90
28193;DHT22;15473;50.840;3.396;2022-09-29T05:27:24;10.70;99.90
28193;DHT22;15473;50.840;3.396;2022-09-29T05:29:54;10.70;99.90
28193;DHT22;15473;50.840;3.396;2022-09-29T05:32:24;10.80;99.90
28193;DHT22;15473;50.840;3.396;2022-09-29T05:34:54;10.80;99.90
28193;DHT22;15473;50.840;3.396;2022-09-29T05:37:24;10.70;99.90
28193;DHT22;15473;50.840;3.396;2022-09-29T05:39:54;10.80;99.90
28193;DHT22;15473;50.840;3.396;2022-09-29T05:42:24;10.70;99.90
28193;DHT22;15473;50.840;3.396;2022-09-29T05:44:56;10.70;99.90
28193;DHT22;15473;50.840;3.396;2022-09-29T05:47:26;10.80;99.90
28193;DHT22;15473;50.840;3.396;2022-09-29T05:49:56;10.80;99.90
28193;DHT22;15473;50.840;3.396;2022-09-29T05:52:26;10.80;99.90
28193;DHT22;15473;50.840;3.396;2022-09-29T05:54:58;10.70;99.90
28193;DHT22;15473;50.840;3.396;2022-09-29T05:57:28;10.70;99.90
28193;DHT22;15473;50.840;3.396;2022-09-29T06:00:05;10.80;99.90
28193;DHT22;15473;50.840;3.396;2022-09-29T06:02:35;10.80;99.90
28193;DHT22;15473;50.840;3.396;2022-09-29T06:05:05;10.80;99.90
28193;DHT22;15473;50.840;3.396;2022-09-29T06:07:35;10.90;99.90
28193;DHT22;15473;50.840;3.396;2022-09-29T06:10:09;10.90;99.90
28193;DHT22;15473;50.840;3.396;2022-09-29T06:12:39;10.90;99.90
28193;DHT22;15473;50.840;3.396;2022-09-29T06:15:09;10.90;99.90
28193;DHT22;15473;50.840;3.396;2022-09-29T06:17:40;10.90;99.90
28193;DHT22;15473;50.840;3.396;2022-09-29T06:20:10;10.90;99.90
28193;DHT22;15473;50.840;3.396;2022-09-29T06:22:40;10.90;99.90
28193;DHT22;15473;50.840;3.396;2022-09-29T06:25:10;10.90;99.90
28193;DHT22;15473;50.840;3.396;2022-09-29T06:27:40;10.90;99.90
28193;DHT22;15473;50.840;3.396;2022-09-29T06:30:16;11.00;99.90
28193;DHT22;15473;50.840;3.396;2022-09-29T06:32:46;11.00;99.90
28193;DHT22;15473;50.840;3.396;2022-09-29T06:35:16;11.00;99.90
28193;DHT22;15473;50.840;3.396;2022-09-29T06:38:05;11.00;99.90
28193;DHT22;15473;50.840;3.396;2022-09-29T06:40:35;11.00;99.90
28193;DHT22;15473;50.840;3.396;2022-09-29T06:43:05;11.10;99.90
28193;DHT22;15473;50.840;3.396;2022-09-29T06:45:36;11.10;99.90
28193;DHT22;15473;50.840;3.396;2022-09-29T06:48:07;11.10;99.90
28193;DHT22;15473;50.840;3.396;2022-09-29T06:50:45;11.20;99.90
28193;DHT22;15473;50.840;3.396;2022-09-29T06:53:16;11.20;99.90
28193;DHT22;15473;50.840;3.396;2022-09-29T06:55:53;11.30;99.90
28193;DHT22;15473;50.840;3.396;2022-09-29T06:58:24;11.30;99.90
28193;DHT22;15473;50.840;3.396;2022-09-29T07:00:54;11.30;99.90
28193;DHT22;15473;50.840;3.396;2022-09-29T07:03:25;11.40;99.90
28193;DHT22;15473;50.840;3.396;2022-09-29T07:05:55;11.30;99.90
28193;DHT22;15473;50.840;3.396;2022-09-29T07:08:25;11.40;99.90
28193;DHT22;15473;50.840;3.396;2022-09-29T07:10:55;11.40;99.90
28193;DHT22;15473;50.840;3.396;2022-09-29T07:13:44;11.40;99.90
28193;DHT22;15473;50.840;3.396;2022-09-29T07:16:14;11.40;99.90
28193;DHT22;15473;50.840;3.396;2022-09-29T07:18:45;11.50;99.90
28193;DHT22;15473;50.840;3.396;2022-09-29T07:21:15;11.50;99.90
28193;DHT22;15473;50.840;3.396;2022-09-29T07:23:46;11.60;99.90
28193;DHT22;15473;50.840;3.396;2022-09-29T07:26:18;11.60;99.90
28193;DHT22;15473;50.840;3.396;2022-09-29T07:28:48;11.70;99.90
28193;DHT22;15473;50.840;3.396;2022-09-29T07:31:19;11.80;99.90
28193;DHT22;15473;50.840;3.396;2022-09-29T07:33:50;11.90;99.90
28193;DHT22;15473;50.840;3.396;2022-09-29T07:36:21;12.00;99.90
28193;DHT22;15473;50.840;3.396;2022-09-29T07:38:52;12.00;99.90
28193;DHT22;15473;50.840;3.396;2022-09-29T07:41:22;12.10;99.90
28193;DHT22;15473;50.840;3.396;2022-09-29T07:43:52;12.10;99.90
28193;DHT22;15473;50.840;3.396;2022-09-29T07:46:22;12.20;99.90
28193;DHT22;15473;50.840;3.396;2022-09-29T07:48:52;12.30;99.90
28193;DHT22;15473;50.840;3.396;2022-09-29T07:51:22;12.40;99.90
28193;DHT22;15473;50.840;3.396;2022-09-29T07:53:52;12.50;99.90
28193;DHT22;15473;50.840;3.396;2022-09-29T07:56:23;12.60;99.90
28193;DHT22;15473;50.840;3.396;2022-09-29T07:58:53;12.70;99.90
28193;DHT22;15473;50.840;3.396;2022-09-29T08:01:24;12.90;99.90
28193;DHT22;15473;50.840;3.396;2022-09-29T08:03:55;13.00;99.90
28193;DHT22;15473;50.840;3.396;2022-09-29T08:06:26;13.00;99.90
28193;DHT22;15473;50.840;3.396;2022-09-29T08:08:59;12.90;99.90
28193;DHT22;15473;50.840;3.396;2022-09-29T08:11:30;13.00;99.90
28193;DHT22;15473;50.840;3.396;2022-09-29T08:14:01;13.00;99.90
28193;DHT22;15473;50.840;3.396;2022-09-29T08:16:31;13.00;99.90
28193;DHT22;15473;50.840;3.396;2022-09-29T08:21:55;13.20;99.90
28193;DHT22;15473;50.840;3.396;2022-09-29T08:24:26;13.20;99.90
28193;DHT22;15473;50.840;3.396;2022-09-29T08:26:58;13.30;99.90
28193;DHT22;15473;50.840;3.396;2022-09-29T08:29:28;13.30;99.90
28193;DHT22;15473;50.840;3.396;2022-09-29T08:31:58;13.40;99.90
28193;DHT22;15473;50.840;3.396;2022-09-29T08:34:28;13.50;99.90
28193;DHT22;15473;50.840;3.396;2022-09-29T08:36:58;13.60;99.90
28193;DHT22;15473;50.840;3.396;2022-09-29T08:39:28;13.70;99.90
28193;DHT22;15473;50.840;3.396;2022-09-29T08:42:04;13.80;99.90
28193;DHT22;15473;50.840;3.396;2022-09-29T08:47:38;13.80;99.90
28193;DHT22;15473;50.840;3.396;2022-09-29T08:50:14;13.90;99.90
28193;DHT22;15473;50.840;3.396;2022-09-29T08:52:53;13.90;99.90
28193;DHT22;15473;50.840;3.396;2022-09-29T08:55:37;14.00;99.90
28193;DHT22;15473;50.840;3.396;2022-09-29T08:58:13;14.00;99.90
28193;DHT22;15473;50.840;3.396;2022-09-29T09:01:05;14.10;99.90
28193;DHT22;15473;50.840;3.396;2022-09-29T09:03:42;14.10;99.90
28193;DHT22;15473;50.840;3.396;2022-09-29T09:12:00;14.20;99.90
28193;DHT22;15473;50.840;3.396;2022-09-29T09:14:51;14.30;99.90
28193;DHT22;15473;50.840;3.396;2022-09-29T09:17:38;14.40;99.90
28193;DHT22;15473;50.840;3.396;2022-09-29T09:23:24;14.60;99.90
28193;DHT22;15473;50.840;3.396;2022-09-29T09:25:58;14.60;99.90
28193;DHT22;15473;50.840;3.396;2022-09-29T09:31:33;14.70;99.90
28193;DHT22;15473;50.840;3.396;2022-09-29T09:34:28;14.70;99.90
28193;DHT22;15473;50.840;3.396;2022-09-29T09:40:16;14.50;99.90
28193;DHT22;15473;50.840;3.396;2022-09-29T09:43:10;14.50;99.90
28193;DHT22;15473;50.840;3.396;2022-09-29T09:45:51;14.40;99.90
28193;DHT22;15473;50.840;3.396;2022-09-29T09:48:33;14.20;99.90
28193;DHT22;15473;50.840;3.396;2022-09-29T09:51:49;14.10;99.90
28193;DHT22;15473;50.840;3.396;2022-09-29T10:00:09;14.00;99.90
28193;DHT22;15473;50.840;3.396;2022-09-29T10:02:49;14.00;99.90
28193;DHT22;15473;50.840;3.396;2022-09-29T10:05:25;13.90;99.90
28193;DHT22;15473;50.840;3.396;2022-09-29T10:07:53;13.90;99.90
28193;DHT22;15473;50.840;3.396;2022-09-29T10:10:26;13.80;99.90
28193;DHT22;15473;50.840;3.396;2022-09-29T10:18:46;13.70;99.90
28193;DHT22;15473;50.840;3.396;2022-09-29T10:23:59;13.50;99.90
28193;DHT22;15473;50.840;3.396;2022-09-29T10:26:42;13.50;99.90
28193;DHT22;15473;50.840;3.396;2022-09-29T10:34:52;13.50;99.90
28193;DHT22;15473;50.840;3.396;2022-09-29T10:37:40;13.50;99.90
28193;DHT22;15473;50.840;3.396;2022-09-29T10:40:15;13.40;99.90
28193;DHT22;15473;50.840;3.396;2022-09-29T10:45:45;13.40;99.90
28193;DHT22;15473;50.840;3.396;2022-09-29T10:51:04;13.60;99.90
28193;DHT22;15473;50.840;3.396;2022-09-29T10:53:44;13.60;99.90
28193;DHT22;15473;50.840;3.396;2022-09-29T10:56:21;13.70;99.90
28193;DHT22;15473;50.840;3.396;2022-09-29T10:58:54;13.80;99.90
28193;DHT22;15473;50.840;3.396;2022-09-29T11:01:27;13.70;99.90
28193;DHT22;15473;50.840;3.396;2022-09-29T11:04:06;13.70;99.90
28193;DHT22;15473;50.840;3.396;2022-09-29T11:06:36;13.70;99.90
28193;DHT22;15473;50.840;3.396;2022-09-29T11:11:58;13.70;99.90
28193;DHT22;15473;50.840;3.396;2022-09-29T11:20:22;13.90;99.90
28193;DHT22;15473;50.840;3.396;2022-09-29T11:23:14;13.90;99.90
28193;DHT22;15473;50.840;3.396;2022-09-29T11:26:06;14.00;99.90
28193;DHT22;15473;50.840;3.396;2022-09-29T11:34:42;14.10;99.90
28193;DHT22;15473;50.840;3.396;2022-09-29T11:37:27;14.30;99.90
28193;DHT22;15473;50.840;3.396;2022-09-29T11:52:08;15.00;99.90
28193;DHT22;15473;50.840;3.396;2022-09-29T12:00:55;15.70;99.90
28193;DHT22;15473;50.840;3.396;2022-09-29T12:12:57;15.90;99.90
28193;DHT22;15473;50.840;3.396;2022-09-29T12:18:26;15.00;99.90
28193;DHT22;15473;50.840;3.396;2022-09-29T12:21:07;14.60;99.90
28193;DHT22;15473;50.840;3.396;2022-09-29T12:26:32;14.20;99.90
28193;DHT22;15473;50.840;3.396;2022-09-29T12:29:23;14.10;99.90
28193;DHT22;15473;50.840;3.396;2022-09-29T12:37:46;13.40;99.90
28193;DHT22;15473;50.840;3.396;2022-09-29T12:43:31;13.20;99.90
28193;DHT22;15473;50.840;3.396;2022-09-29T12:51:48;12.90;99.90
28193;DHT22;15473;50.840;3.396;2022-09-29T12:54:41;13.00;99.90
28193;DHT22;15473;50.840;3.396;2022-09-29T12:57:24;13.10;99.90
28193;DHT22;15473;50.840;3.396;2022-09-29T13:03:11;13.00;99.90
28193;DHT22;15473;50.840;3.396;2022-09-29T13:11:38;13.20;99.90
28193;DHT22;15473;50.840;3.396;2022-09-29T13:17:12;13.20;99.90
28193;DHT22;15473;50.840;3.396;2022-09-29T13:28:37;13.20;99.90
28193;DHT22;15473;50.840;3.396;2022-09-29T13:31:10;13.30;99.90
28193;DHT22;15473;50.840;3.396;2022-09-29T13:36:44;13.30;99.90
28193;DHT22;15473;50.840;3.396;2022-09-29T13:39:25;13.30;99.90
28193;DHT22;15473;50.840;3.396;2022-09-29T13:42:03;13.30;99.90
28193;DHT22;15473;50.840;3.396;2022-09-29T13:47:50;13.50;99.90
28193;DHT22;15473;50.840;3.396;2022-09-29T13:50:43;13.50;99.90
28193;DHT22;15473;50.840;3.396;2022-09-29T13:59:01;13.60;99.90
28193;DHT22;15473;50.840;3.396;2022-09-29T14:01:38;13.60;99.90
28193;DHT22;15473;50.840;3.396;2022-09-29T14:04:49;13.60;99.90
28193;DHT22;15473;50.840;3.396;2022-09-29T14:07:47;13.60;99.90
28193;DHT22;15473;50.840;3.396;2022-09-29T14:10:38;13.70;99.90
28193;DHT22;15473;50.840;3.396;2022-09-29T14:13:21;13.80;99.90
28193;DHT22;15473;50.840;3.396;2022-09-29T14:19:04;13.90;99.90
28193;DHT22;15473;50.840;3.396;2022-09-29T14:24:42;14.20;99.90
28193;DHT22;15473;50.840;3.396;2022-09-29T14:30:13;14.50;99.90
28193;DHT22;15473;50.840;3.396;2022-09-29T14:35:29;14.80;99.90
28193;DHT22;15473;50.840;3.396;2022-09-29T14:50:16;15.20;99.90
28193;DHT22;15473;50.840;3.396;2022-09-29T15:03:49;15.30;99.90
28193;DHT22;15473;50.840;3.396;2022-09-29T15:06:22;15.40;99.90
28193;DHT22;15473;50.840;3.396;2022-09-29T15:09:33;15.50;99.90
28193;DHT22;15473;50.840;3.396;2022-09-29T15:11:54;15.50;99.90
28193;DHT22;15473;50.840;3.396;2022-09-29T15:14:31;15.60;99.90
28193;DHT22;15473;50.840;3.396;2022-09-29T15:17:22;15.80;99.90
28193;DHT22;15473;50.840;3.396;2022-09-29T15:20:27;15.90;99.90
28193;DHT22;15473;50.840;3.396;2022-09-29T15:23:17;16.00;99.90
28193;DHT22;15473;50.840;3.396;2022-09-29T15:26:19;16.10;99.90
28193;DHT22;15473;50.840;3.396;2022-09-29T15:28:49;16.00;99.90
28193;DHT22;15473;50.840;3.396;2022-09-29T15:31:31;16.00;99.90
28193;DHT22;15473;50.840;3.396;2022-09-29T15:33:53;15.80;99.90
28193;DHT22;15473;50.840;3.396;2022-09-29T15:36:24;15.70;99.90
28193;DHT22;15473;50.840;3.396;2022-09-29T15:39:12;15.60;99.90
28193;DHT22;15473;50.840;3.396;2022-09-29T15:41:36;15.60;99.90
28193;DHT22;15473;50.840;3.396;2022-09-29T15:44:13;15.70;99.90
28193;DHT22;15473;50.840;3.396;2022-09-29T15:49:49;15.80;99.90
28193;DHT22;15473;50.840;3.396;2022-09-29T15:52:20;15.80;99.90
28193;DHT22;15473;50.840;3.396;2022-09-29T15:54:56;15.90;99.90
28193;DHT22;15473;50.840;3.396;2022-09-29T16:03:08;15.60;99.90
28193;DHT22;15473;50.840;3.396;2022-09-29T16:05:42;15.50;99.90
28193;DHT22;15473;50.840;3.396;2022-09-29T16:08:23;15.30;99.90
28193;DHT22;15473;50.840;3.396;2022-09-29T16:10:57;15.20;99.90
28193;DHT22;15473;50.840;3.396;2022-09-29T16:13:32;15.00;99.90
28193;DHT22;15473;50.840;3.396;2022-09-29T16:16:10;14.90;99.90
28193;DHT22;15473;50.840;3.396;2022-09-29T16:21:39;14.80;99.90
28193;DHT22;15473;50.840;3.396;2022-09-29T16:24:16;14.70;99.90
28193;DHT22;15473;50.840;3.396;2022-09-29T16:27:36;14.60;99.90
28193;DHT22;15473;50.840;3.396;2022-09-29T16:29:44;14.50;99.90
28193;DHT22;15473;50.840;3.396;2022-09-29T16:35:44;14.40;99.90
28193;DHT22;15473;50.840;3.396;2022-09-29T16:38:39;14.30;99.90
28193;DHT22;15473;50.840;3.396;2022-09-29T16:43:46;14.10;99.90
28193;DHT22;15473;50.840;3.396;2022-09-29T16:46:23;14.00;99.90
28193;DHT22;15473;50.840;3.396;2022-09-29T16:48:54;13.90;99.90
28193;DHT22;15473;50.840;3.396;2022-09-29T16:54:23;13.70;99.90
28193;DHT22;15473;50.840;3.396;2022-09-29T17:02:11;13.60;99.90
28193;DHT22;15473;50.840;3.396;2022-09-29T17:04:41;13.50;99.90
28193;DHT22;15473;50.840;3.396;2022-09-29T17:07:16;13.50;99.90
28193;DHT22;15473;50.840;3.396;2022-09-29T17:09:55;13.40;99.90
28193;DHT22;15473;50.840;3.396;2022-09-29T17:12:23;13.30;99.90
28193;DHT22;15473;50.840;3.396;2022-09-29T17:15:00;13.30;99.90
28193;DHT22;15473;50.840;3.396;2022-09-29T17:17:39;13.20;99.90
28193;DHT22;15473;50.840;3.396;2022-09-29T17:20:20;13.10;99.90
28193;DHT22;15473;50.840;3.396;2022-09-29T17:22:58;13.00;99.90
28193;DHT22;15473;50.840;3.396;2022-09-29T17:25:40;12.90;99.90
28193;DHT22;15473;50.840;3.396;2022-09-29T17:28:24;12.90;99.90
28193;DHT22;15473;50.840;3.396;2022-09-29T17:31:09;12.80;99.90
28193;DHT22;15473;50.840;3.396;2022-09-29T17:33:46;12.70;99.90
28193;DHT22;15473;50.840;3.396;2022-09-29T17:36:23;12.70;99.90
28193;DHT22;15473;50.840;3.396;2022-09-29T17:39:00;12.60;99.90
28193;DHT22;15473;50.840;3.396;2022-09-29T17:41:37;12.50;99.90
28193;DHT22;15473;50.840;3.396;2022-09-29T17:44:14;12.50;99.90
28193;DHT22;15473;50.840;3.396;2022-09-29T17:46:51;12.30;99.90
28193;DHT22;15473;50.840;3.396;2022-09-29T17:49:35;12.30;99.90
28193;DHT22;15473;50.840;3.396;2022-09-29T17:52:13;12.30;99.90
28193;DHT22;15473;50.840;3.396;2022-09-29T17:54:50;12.30;99.90
28193;DHT22;15473;50.840;3.396;2022-09-29T17:57:33;12.20;99.90
28193;DHT22;15473;50.840;3.396;2022-09-29T18:00:36;12.10;99.90
28193;DHT22;15473;50.840;3.396;2022-09-29T18:03:14;12.00;99.90
28193;DHT22;15473;50.840;3.396;2022-09-29T18:05:57;12.00;99.90
28193;DHT22;15473;50.840;3.396;2022-09-29T18:08:34;11.90;99.90
28193;DHT22;15473;50.840;3.396;2022-09-29T18:11:11;11.90;99.90
28193;DHT22;15473;50.840;3.396;2022-09-29T18:13:47;11.90;99.90
28193;DHT22;15473;50.840;3.396;2022-09-29T18:16:23;11.90;99.90
28193;DHT22;15473;50.840;3.396;2022-09-29T18:19:01;11.90;99.90
28193;DHT22;15473;50.840;3.396;2022-09-29T18:21:37;11.90;99.90
28193;DHT22;15473;50.840;3.396;2022-09-29T18:24:14;11.80;99.90
28193;DHT22;15473;50.840;3.396;2022-09-29T18:26:50;11.80;99.90
28193;DHT22;15473;50.840;3.396;2022-09-29T18:29:32;11.80;99.90
28193;DHT22;15473;50.840;3.396;2022-09-29T18:32:11;11.70;99.90
28193;DHT22;15473;50.840;3.396;2022-09-29T18:34:55;11.70;99.90
28193;DHT22;15473;50.840;3.396;2022-09-29T18:37:39;11.70;99.90
28193;DHT22;15473;50.840;3.396;2022-09-29T18:40:17;11.70;99.90
28193;DHT22;15473;50.840;3.396;2022-09-29T18:42:55;11.60;99.90
28193;DHT22;15473;50.840;3.396;2022-09-29T18:45:37;11.60;99.90
28193;DHT22;15473;50.840;3.396;2022-09-29T18:48:20;11.50;99.90
28193;DHT22;15473;50.840;3.396;2022-09-29T18:51:15;11.60;99.90
28193;DHT22;15473;50.840;3.396;2022-09-29T18:53:52;11.60;99.90
28193;DHT22;15473;50.840;3.396;2022-09-29T18:56:36;11.50;99.90
28193;DHT22;15473;50.840;3.396;2022-09-29T18:59:19;11.50;99.90
28193;DHT22;15473;50.840;3.396;2022-09-29T19:02:12;11.50;99.90
28193;DHT22;15473;50.840;3.396;2022-09-29T19:04:36;11.50;99.90
28193;DHT22;15473;50.840;3.396;2022-09-29T19:07:12;11.50;99.90
28193;DHT22;15473;50.840;3.396;2022-09-29T19:09:54;11.50;99.90
28193;DHT22;15473;50.840;3.396;2022-09-29T19:12:31;11.40;99.90
28193;DHT22;15473;50.840;3.396;2022-09-29T19:15:17;11.40;99.90
28193;DHT22;15473;50.840;3.396;2022-09-29T19:17:56;11.40;99.90
28193;DHT22;15473;50.840;3.396;2022-09-29T19:20:36;11.20;99.90
28193;DHT22;15473;50.840;3.396;2022-09-29T19:23:14;11.20;99.90
28193;DHT22;15473;50.840;3.396;2022-09-29T19:25:53;11.10;99.90
28193;DHT22;15473;50.840;3.396;2022-09-29T19:28:31;11.10;99.90
28193;DHT22;15473;50.840;3.396;2022-09-29T19:31:10;11.10;99.90
28193;DHT22;15473;50.840;3.396;2022-09-29T19:33:54;11.00;99.90
28193;DHT22;15473;50.840;3.396;2022-09-29T19:36:31;11.00;99.90
28193;DHT22;15473;50.840;3.396;2022-09-29T19:39:08;11.00;99.90
28193;DHT22;15473;50.840;3.396;2022-09-29T19:41:46;11.00;99.90
28193;DHT22;15473;50.840;3.396;2022-09-29T19:44:24;11.00;99.90
28193;DHT22;15473;50.840;3.396;2022-09-29T19:47:01;10.90;99.90
28193;DHT22;15473;50.840;3.396;2022-09-29T19:49:38;10.90;99.90
28193;DHT22;15473;50.840;3.396;2022-09-29T19:52:15;10.80;99.90
28193;DHT22;15473;50.840;3.396;2022-09-29T19:54:53;10.80;99.90
28193;DHT22;15473;50.840;3.396;2022-09-29T19:57:30;10.80;99.90
28193;DHT22;15473;50.840;3.396;2022-09-29T20:00:16;10.80;99.90
28193;DHT22;15473;50.840;3.396;2022-09-29T20:02:54;10.80;99.90
28193;DHT22;15473;50.840;3.396;2022-09-29T20:05:31;10.90;99.90
28193;DHT22;15473;50.840;3.396;2022-09-29T20:08:07;10.90;99.90
28193;DHT22;15473;50.840;3.396;2022-09-29T20:10:44;10.80;99.90
28193;DHT22;15473;50.840;3.396;2022-09-29T20:13:27;10.70;99.90
28193;DHT22;15473;50.840;3.396;2022-09-29T20:16:04;10.70;99.90
28193;DHT22;15473;50.840;3.396;2022-09-29T20:18:41;10.60;99.90
28193;DHT22;15473;50.840;3.396;2022-09-29T20:21:18;10.50;99.90